Time;durP1;ratioP1;P1;durP2;ratioP2;P2;SDS_P1;SDS_P2;PMS_P1;PMS_P2;Temp;Humidity;BMP_temperature;BMP_pressure;BME280_temperature;BME280_humidity;BME280_pressure;Samples;Min_cycle;Max_cycle;Signal;HPM_P1;HPM_P2
2021/12/06 00:01:48;;;;;;;34.67;19.20;;;;;;;3.48;100.00;100869.30;1697050;83;21046;-67
2021/12/06 00:04:21;;;;;;;37.55;20.92;;;;;;;3.45;100.00;100865.93;1695686;83;21570;-67
2021/12/06 00:06:53;;;;;;;37.95;21.10;;;;;;;3.46;100.00;100864.66;1693449;83;21121;-67
2021/12/06 00:09:23;;;;;;;45.00;21.82;;;;;;;3.47;100.00;100862.94;1695719;83;21564;-67
2021/12/06 00:11:56;;;;;;;41.95;22.58;;;;;;;3.49;100.00;100863.77;1695948;83;21096;-67
2021/12/06 00:14:27;;;;;;;36.45;22.05;;;;;;;3.55;100.00;100862.47;1658992;85;21040;-67
2021/12/06 00:16:50;;;;;;;40.30;21.42;;;;;;;3.56;100.00;100860.33;1669166;83;21087;-67
2021/12/06 00:19:17;;;;;;;35.90;20.85;;;;;;;3.59;100.00;100858.60;1670685;84;21096;-67
2021/12/06 00:21:45;;;;;;;36.40;20.37;;;;;;;3.57;100.00;100848.86;1686349;84;21073;-67
2021/12/06 00:24:11;;;;;;;34.73;19.27;;;;;;;3.62;100.00;100855.17;1629716;86;21658;-67
2021/12/06 00:26:38;;;;;;;37.73;20.68;;;;;;;3.64;100.00;100863.64;1661641;85;21552;-68
2021/12/06 00:29:05;;;;;;;38.02;21.23;;;;;;;3.62;100.00;100858.99;1688429;83;21066;-67
2021/12/06 00:31:34;;;;;;;44.08;20.88;;;;;;;3.61;100.00;100853.50;1687194;83;21796;-67
2021/12/06 00:34:06;;;;;;;39.03;21.17;;;;;;;3.59;100.00;100848.42;1695975;83;21084;-67
2021/12/06 00:36:37;;;;;;;42.25;20.60;;;;;;;3.59;100.00;100852.23;1695934;84;21084;-67
2021/12/06 00:39:08;;;;;;;36.30;19.32;;;;;;;3.54;100.00;100844.22;1696816;83;21057;-67
2021/12/06 00:41:35;;;;;;;37.78;19.30;;;;;;;3.55;100.00;100844.22;1696952;83;21036;-67
2021/12/06 00:44:06;;;;;;;33.40;19.15;;;;;;;3.55;100.00;100851.86;1695850;85;21092;-67
2021/12/06 00:46:35;;;;;;;37.28;20.45;;;;;;;3.53;100.00;100851.47;1696735;84;21077;-67
2021/12/06 00:49:02;;;;;;;38.92;21.68;;;;;;;3.59;100.00;100846.31;1697896;83;21053;-67
2021/12/06 00:51:28;;;;;;;38.98;20.17;;;;;;;3.59;100.00;100846.31;1697934;84;21018;-67
2021/12/06 00:53:56;;;;;;;37.40;20.10;;;;;;;3.60;100.00;100853.91;1696875;83;21569;-67
2021/12/06 00:56:23;;;;;;;34.80;19.20;;;;;;;3.56;100.00;100850.14;1698220;83;21053;-67
2021/12/06 00:58:50;;;;;;;39.88;20.17;;;;;;;3.56;100.00;100845.89;1652017;85;21070;-67
2021/12/06 01:01:17;;;;;;;35.70;20.65;;;;;;;3.63;100.00;100847.09;1674667;85;21508;-67
2021/12/06 01:03:44;;;;;;;35.70;18.25;;;;;;;3.66;100.00;100847.92;1673646;85;21051;-67
2021/12/06 01:06:12;;;;;;;34.80;19.23;;;;;;;3.65;100.00;100844.98;1675079;85;21546;-67
2021/12/06 01:08:40;;;;;;;34.80;18.77;;;;;;;3.68;100.00;100855.11;1665526;85;21543;-67
2021/12/06 01:11:09;;;;;;;34.08;18.95;;;;;;;3.68;100.00;100850.45;1672857;85;21583;-67
2021/12/06 01:13:38;;;;;;;32.15;17.80;;;;;;;3.67;100.00;100846.21;1671741;85;21060;-67
2021/12/06 01:16:07;;;;;;;32.67;17.55;;;;;;;3.64;100.00;100840.73;1670134;85;21070;-67
2021/12/06 01:18:35;;;;;;;31.87;17.40;;;;;;;3.57;100.00;100836.14;1660108;84;21036;-67
2021/12/06 01:21:26;;;;;;;35.73;19.55;;;;;;;3.56;100.00;100829.78;1664760;85;21036;-66
2021/12/06 01:23:56;;;;;;;32.67;18.20;;;;;;;3.57;100.00;100832.32;1667819;85;21130;-67
2021/12/06 01:26:42;;;;;;;29.92;17.30;;;;;;;3.56;100.00;100831.05;1666732;85;21060;-67
2021/12/06 01:29:25;;;;;;;32.98;18.67;;;;;;;3.58;100.00;100833.98;1669955;85;21150;-67
2021/12/06 01:39:57;;;;;;;29.65;16.70;;;;;;;3.63;100.00;100828.88;1660058;84;21051;-67
2021/12/06 01:42:25;;;;;;;30.17;17.00;;;;;;;3.59;100.00;100824.67;1610642;86;21098;-67
2021/12/06 01:44:56;;;;;;;29.35;16.45;;;;;;;3.58;100.00;100814.90;1654201;86;21083;-66
2021/12/06 01:47:29;;;;;;;30.20;17.48;;;;;;;3.61;100.00;100810.23;1660433;85;21075;-67
2021/12/06 01:50:06;;;;;;;31.37;18.02;;;;;;;3.61;100.00;100808.52;1655833;84;21051;-67
2021/12/06 01:52:40;;;;;;;29.00;16.20;;;;;;;3.59;100.00;100822.12;1666937;84;21055;-67
2021/12/06 01:55:12;;;;;;;29.07;16.17;;;;;;;3.63;100.00;100821.23;1657353;84;21103;-67
2021/12/06 01:57:40;;;;;;;27.30;15.78;;;;;;;3.65;100.00;100821.20;1690289;85;21560;-67
2021/12/06 02:00:24;;;;;;;28.10;16.35;;;;;;;3.64;100.00;100819.09;1684772;84;21028;-67
2021/12/06 02:02:53;;;;;;;30.10;17.15;;;;;;;3.62;100.00;100820.81;1677746;85;21055;-66
2021/12/06 02:05:22;;;;;;;32.03;17.55;;;;;;;3.61;100.00;100820.41;1683654;84;21083;-66
2021/12/06 02:07:49;;;;;;;29.00;16.25;;;;;;;3.63;100.00;100817.83;1680239;84;21492;-67
2021/12/06 02:10:20;;;;;;;31.30;17.62;;;;;;;3.61;100.00;100812.77;1629347;86;21058;-67
2021/12/06 02:12:50;;;;;;;35.55;18.20;;;;;;;3.60;100.00;100823.36;1664470;84;21658;-67
2021/12/06 02:15:35;;;;;;;29.27;17.45;;;;;;;3.62;100.00;100824.63;1676962;85;21102;-67
2021/12/06 02:18:04;;;;;;;31.02;16.95;;;;;;;3.65;100.00;100827.56;1644128;85;21063;-67
2021/12/06 02:20:27;;;;;;;30.20;16.93;;;;;;;3.63;100.00;100821.64;1659354;84;21063;-67
2021/12/06 02:22:55;;;;;;;30.32;17.82;;;;;;;3.59;100.00;100827.22;1628064;86;21112;-67
2021/12/06 02:25:22;;;;;;;30.27;16.73;;;;;;;3.59;100.00;100839.52;1691118;83;21085;-67
2021/12/06 02:27:52;;;;;;;28.77;16.60;;;;;;;3.58;100.00;100837.81;1696670;84;21117;-67
2021/12/06 02:30:21;;;;;;;30.55;16.90;;;;;;;3.63;100.00;100841.60;1695726;84;21117;-66
2021/12/06 02:32:49;;;;;;;28.60;15.93;;;;;;;3.65;100.00;100839.02;1698211;83;21053;-67
2021/12/06 02:35:20;;;;;;;31.68;17.70;;;;;;;3.65;100.00;100836.47;1697192;83;21072;-67
2021/12/06 02:37:51;;;;;;;28.57;16.25;;;;;;;3.67;100.00;100841.12;1696023;83;21045;-67
2021/12/06 02:40:27;;;;;;;29.10;15.88;;;;;;;3.63;100.00;100836.52;1696424;83;21040;-66
2021/12/06 02:42:56;;;;;;;28.23;16.85;;;;;;;3.65;100.00;100836.06;1696981;83;21040;-67
2021/12/06 02:45:26;;;;;;;29.85;17.20;;;;;;;3.68;100.00;100834.75;1693709;84;21073;-67
2021/12/06 02:47:58;;;;;;;29.90;16.35;;;;;;;3.64;100.00;100835.64;1697953;83;21026;-67
2021/12/06 02:50:31;;;;;;;32.50;18.92;;;;;;;3.64;100.00;100836.91;1694553;83;21049;-67
2021/12/06 02:52:59;;;;;;;34.38;20.92;;;;;;;3.63;100.00;100833.09;1695078;83;21031;-67
2021/12/06 02:55:36;;;;;;;33.90;20.20;;;;;;;3.64;100.00;100835.64;1671865;85;21021;-67
2021/12/06 02:58:21;;;;;;;31.85;18.80;;;;;;;3.61;100.00;100842.05;1657622;86;21059;-67
2021/12/06 03:00:51;;;;;;;29.95;17.67;;;;;;;3.59;100.00;100834.86;1655765;85;21531;-67
2021/12/06 03:03:18;;;;;;;29.55;17.75;;;;;;;3.56;100.00;100837.42;1664501;84;21051;-67
2021/12/06 03:05:50;;;;;;;34.27;18.55;;;;;;;3.52;100.00;100845.94;1631300;85;21048;-67
2021/12/06 03:08:42;;;;;;;29.80;16.62;;;;;;;3.52;100.00;100845.50;1687885;83;21570;-68
2021/12/06 03:11:19;;;;;;;29.48;16.15;;;;;;;3.53;100.00;100854.01;1696074;83;21050;-67
2021/12/06 03:13:49;;;;;;;30.92;16.10;;;;;;;3.49;100.00;100867.19;1695265;83;21593;-68
2021/12/06 03:16:17;;;;;;;31.07;16.23;;;;;;;3.50;100.00;100870.56;1697449;84;21643;-67
2021/12/06 03:18:47;;;;;;;29.92;16.57;;;;;;;3.51;100.00;100870.56;1697482;83;21037;-67
2021/12/06 03:21:16;;;;;;;34.88;17.17;;;;;;;3.52;100.00;100873.50;1696812;83;21088;-67
2021/12/06 03:23:44;;;;;;;32.58;16.75;;;;;;;3.53;100.00;100873.94;1696742;83;21633;-67
2021/12/06 03:26:11;;;;;;;33.63;20.50;;;;;;;3.56;100.00;100862.44;1696550;83;21060;-67
2021/12/06 03:28:42;;;;;;;34.85;20.60;;;;;;;3.60;100.00;100862.81;1696264;83;21106;-67
2021/12/06 03:31:12;;;;;;;35.95;18.95;;;;;;;3.64;100.00;100861.09;1697255;83;21633;-67
2021/12/06 03:33:45;;;;;;;32.75;18.32;;;;;;;3.66;100.00;100865.73;1695508;83;21037;-67
2021/12/06 03:36:13;;;;;;;31.62;19.00;;;;;;;3.61;100.00;100866.23;1697251;83;21092;-68
2021/12/06 03:38:41;;;;;;;34.48;18.73;;;;;;;3.63;100.00;100858.55;1646900;86;21129;-67
2021/12/06 03:41:11;;;;;;;31.80;16.35;;;;;;;3.64;100.00;100854.73;1686294;84;21522;-68
2021/12/06 03:43:40;;;;;;;30.80;17.42;;;;;;;3.55;100.00;100858.66;1637733;86;21083;-68
2021/12/06 03:46:10;;;;;;;34.48;18.62;;;;;;;3.53;100.00;100857.83;1686574;84;21029;-67
2021/12/06 03:48:37;;;;;;;32.75;17.27;;;;;;;3.49;100.00;100858.28;1635331;86;21028;-67
2021/12/06 03:51:05;;;;;;;32.90;18.32;;;;;;;3.48;100.00;100854.47;1672709;84;21518;-68
2021/12/06 03:53:33;;;;;;;31.87;17.23;;;;;;;3.43;100.00;100855.79;1678998;84;21645;-68
2021/12/06 03:56:01;;;;;;;33.18;17.65;;;;;;;3.36;100.00;100851.59;1648952;85;21186;-68
2021/12/06 03:58:28;;;;;;;36.08;17.00;;;;;;;3.36;100.00;100853.70;1666348;84;21178;-68
2021/12/06 04:00:56;;;;;;;34.27;18.50;;;;;;;3.33;100.00;100849.94;1678730;84;21031;-68
2021/12/06 04:03:27;;;;;;;34.50;18.60;;;;;;;3.33;100.00;100847.39;1679897;84;21138;-67
2021/12/06 04:05:56;;;;;;;32.25;16.60;;;;;;;3.30;100.00;100851.22;1652972;84;21071;-67
2021/12/06 04:08:25;;;;;;;33.25;17.37;;;;;;;3.27;100.00;100857.62;1630683;85;21099;-67
2021/12/06 04:10:55;;;;;;;33.25;16.90;;;;;;;3.20;100.00;100856.84;1663933;83;21144;-68
2021/12/06 04:13:23;;;;;;;31.90;16.15;;;;;;;3.22;100.00;100868.24;1685685;83;21534;-67
2021/12/06 04:15:51;;;;;;;36.58;18.02;;;;;;;3.22;100.00;100868.24;1693448;83;21105;-68
2021/12/06 04:18:19;;;;;;;35.90;17.57;;;;;;;3.27;100.00;100867.80;1695841;83;21129;-68
2021/12/06 04:20:46;;;;;;;33.53;17.27;;;;;;;3.29;100.00;100880.52;1696767;83;21544;-67
2021/12/06 04:23:14;;;;;;;32.55;16.62;;;;;;;3.30;100.00;100873.28;1696189;84;21081;-67
2021/12/06 04:25:41;;;;;;;42.25;18.40;;;;;;;3.30;100.00;100867.75;1696351;83;21099;-67
2021/12/06 04:28:14;;;;;;;36.68;19.35;;;;;;;3.33;100.00;100852.91;1669772;83;21060;-67
2021/12/06 04:30:39;;;;;;;34.67;18.42;;;;;;;3.31;100.00;100849.10;1693942;83;21549;-67
2021/12/06 04:33:09;;;;;;;34.90;18.65;;;;;;;3.28;100.00;100836.39;1696495;83;21045;-68
2021/12/06 04:35:38;;;;;;;38.65;19.50;;;;;;;3.28;100.00;100831.30;1697206;83;21085;-67
2021/12/06 04:38:08;;;;;;;34.67;18.85;;;;;;;3.25;100.00;100833.05;1695998;83;21005;-67
2021/12/06 04:40:37;;;;;;;33.98;18.12;;;;;;;3.25;100.00;100832.62;1655745;85;21619;-67
2021/12/06 04:43:05;;;;;;;30.02;16.82;;;;;;;3.18;100.00;100830.56;1658405;85;21086;-67
2021/12/06 04:45:33;;;;;;;32.80;17.27;;;;;;;3.11;100.00;100839.52;1654192;85;21195;-67
2021/12/06 04:48:00;;;;;;;33.40;18.80;;;;;;;3.06;100.00;100842.52;1663546;84;21090;-67
2021/12/06 04:50:31;;;;;;;33.83;17.62;;;;;;;2.99;100.00;100839.19;1652268;85;21083;-67
2021/12/06 04:53:06;;;;;;;31.33;17.20;;;;;;;2.90;100.00;100831.20;1671402;84;21035;-68
2021/12/06 04:55:45;;;;;;;31.57;17.73;;;;;;;2.86;100.00;100835.90;1668428;84;21020;-67
2021/12/06 04:58:18;;;;;;;33.18;17.23;;;;;;;2.85;100.00;100846.07;1650832;84;21059;-68
2021/12/06 05:01:02;;;;;;;33.33;17.12;;;;;;;2.82;100.00;100855.84;1678047;84;21056;-67
2021/12/06 05:03:33;;;;;;;34.25;18.20;;;;;;;2.80;100.00;100851.20;1684618;85;21059;-67
2021/12/06 05:06:05;;;;;;;31.80;17.27;;;;;;;2.82;100.00;100853.30;1665308;83;21614;-67
2021/12/06 05:08:37;;;;;;;35.33;17.67;;;;;;;2.79;100.00;100852.87;1671301;84;21035;-67
2021/12/06 05:11:07;;;;;;;33.10;16.67;;;;;;;2.80;100.00;100852.47;1676326;84;21130;-67
2021/12/06 05:13:36;;;;;;;29.42;15.32;;;;;;;2.81;100.00;100860.50;1645470;86;21075;-67
2021/12/06 05:16:04;;;;;;;29.95;16.07;;;;;;;2.78;100.00;100865.61;1649499;85;21142;-67
2021/12/06 05:18:31;;;;;;;25.95;15.00;;;;;;;2.79;100.00;100870.66;1648621;86;21048;-67
2021/12/06 05:20:59;;;;;;;30.08;15.75;;;;;;;2.77;100.00;100860.93;1657267;86;21526;-67
2021/12/06 05:23:26;;;;;;;28.87;16.05;;;;;;;2.81;100.00;100874.48;1653248;86;21092;-67
2021/12/06 05:25:53;;;;;;;29.80;15.90;;;;;;;2.85;100.00;100883.77;1658953;86;21104;-67
2021/12/06 05:28:26;;;;;;;27.60;15.23;;;;;;;2.88;100.00;100890.13;1656077;86;21103;-67
2021/12/06 05:30:54;;;;;;;24.45;13.95;;;;;;;2.95;100.00;100893.03;1659438;86;21594;-67
2021/12/06 05:33:28;;;;;;;29.92;15.80;;;;;;;2.93;100.00;100894.73;1688730;84;21125;-67
2021/12/06 05:35:46;;;;;;;27.75;15.10;;;;;;;2.99;100.00;100901.49;1683575;84;21145;-67
2021/12/06 05:38:13;;;;;;;29.55;15.45;;;;;;;3.09;100.00;100896.76;1700358;82;21542;-67
2021/12/06 05:40:40;;;;;;;27.70;15.90;;;;;;;3.16;100.00;100898.82;1696376;83;21096;-67
2021/12/06 05:43:10;;;;;;;27.32;15.63;;;;;;;3.15;100.00;100904.34;1697455;83;21088;-67
2021/12/06 05:45:37;;;;;;;30.20;17.07;;;;;;;3.15;100.00;100897.15;1695593;83;21509;-67
2021/12/06 05:48:06;;;;;;;32.75;19.65;;;;;;;3.14;100.00;100900.12;1696608;84;21108;-67
2021/12/06 05:50:34;;;;;;;37.95;21.60;;;;;;;3.18;100.00;100890.75;1695991;83;21084;-67
2021/12/06 05:53:01;;;;;;;36.23;20.37;;;;;;;3.23;100.00;100886.48;1696459;83;21070;-67
2021/12/06 05:55:29;;;;;;;33.10;18.90;;;;;;;3.21;100.00;100881.41;1697071;84;21009;-67
2021/12/06 05:58:00;;;;;;;34.55;19.25;;;;;;;3.26;100.00;100886.88;1697241;83;21033;-67
2021/12/06 06:00:30;;;;;;;32.65;17.85;;;;;;;3.32;100.00;100893.19;1697235;83;21060;-67
2021/12/06 06:03:00;;;;;;;38.73;20.52;;;;;;;3.33;100.00;100893.19;1697214;84;21550;-67
2021/12/06 06:05:27;;;;;;;36.95;20.97;;;;;;;3.41;100.00;100893.12;1695687;84;21065;-67
2021/12/06 06:07:53;;;;;;;32.53;18.23;;;;;;;3.47;100.00;100887.12;1697793;83;21045;-67
2021/12/06 06:10:20;;;;;;;29.82;16.02;;;;;;;3.52;100.00;100887.94;1696046;83;21093;-67
2021/12/06 06:12:47;;;;;;;32.55;17.42;;;;;;;3.56;100.00;100887.05;1697787;84;21080;-67
2021/12/06 06:15:14;;;;;;;31.50;17.52;;;;;;;3.57;100.00;100888.32;1696011;84;21541;-68
2021/12/06 06:17:43;;;;;;;33.05;17.55;;;;;;;3.62;100.00;100897.18;1697524;84;21057;-67
2021/12/06 06:20:22;;;;;;;30.40;17.57;;;;;;;3.65;100.00;100900.98;1694224;83;21076;-67
2021/12/06 06:22:49;;;;;;;38.05;21.65;;;;;;;3.66;100.00;100915.83;1696649;83;21037;-67
2021/12/06 06:25:17;;;;;;;36.88;21.93;;;;;;;3.68;100.00;100923.86;1695394;83;21116;-67
2021/12/06 06:27:45;;;;;;;43.60;23.85;;;;;;;3.75;100.00;100931.86;1695867;83;21030;-67
2021/12/06 06:30:14;;;;;;;37.53;20.70;;;;;;;3.83;100.00;100930.94;1696615;83;21005;-67
2021/12/06 06:32:43;;;;;;;35.52;20.97;;;;;;;3.88;100.00;100938.95;1693574;83;21127;-67
2021/12/06 06:35:10;;;;;;;33.33;19.90;;;;;;;3.95;100.00;100941.00;1661456;85;21039;-67
2021/12/06 06:37:37;;;;;;;31.60;19.10;;;;;;;4.03;100.00;100946.03;1660217;84;21043;-67
2021/12/06 06:40:06;;;;;;;33.45;19.87;;;;;;;4.09;100.00;100944.69;1659383;85;21084;-67
2021/12/06 06:42:34;;;;;;;31.95;19.37;;;;;;;4.18;100.00;100943.34;1668689;85;21012;-67
2021/12/06 06:45:02;;;;;;;29.57;17.65;;;;;;;4.23;100.00;100940.73;1656419;86;21503;-67
2021/12/06 06:47:29;;;;;;;28.30;15.95;;;;;;;4.25;100.00;100940.28;1658390;85;21071;-67
2021/12/06 06:49:58;;;;;;;33.38;18.52;;;;;;;4.19;100.00;100942.45;1659786;84;21086;-67
2021/12/06 06:52:25;;;;;;;26.55;15.43;;;;;;;4.23;100.00;100939.02;1675033;84;21653;-67
2021/12/06 06:54:51;;;;;;;35.83;19.90;;;;;;;4.27;100.00;100946.20;1733243;81;21059;-66
2021/12/06 06:57:18;;;;;;;37.13;19.32;;;;;;;4.32;100.00;100952.08;1730247;82;21092;-67
2021/12/06 06:59:46;;;;;;;34.03;18.15;;;;;;;4.36;100.00;100953.32;1725524;82;21476;-67
2021/12/06 07:02:14;;;;;;;28.67;16.00;;;;;;;4.39;100.00;100958.37;1735042;82;21020;-67
2021/12/06 07:04:41;;;;;;;26.30;15.25;;;;;;;4.32;100.00;100965.69;1725164;82;21040;-67
2021/12/06 07:07:08;;;;;;;34.88;19.30;;;;;;;4.35;100.00;100962.25;1733304;82;21467;-67
2021/12/06 07:09:35;;;;;;;37.00;20.40;;;;;;;4.39;100.00;100964.74;1734695;82;21040;-66
2021/12/06 07:12:06;;;;;;;31.70;18.30;;;;;;;4.39;100.00;100968.56;1733838;81;21042;-67
2021/12/06 07:14:32;;;;;;;25.55;14.60;;;;;;;4.47;100.00;100967.21;1726787;81;21082;-67
2021/12/06 07:16:59;;;;;;;26.68;15.75;;;;;;;4.49;100.00;100968.03;1719350;81;21125;-67
2021/12/06 07:19:27;;;;;;;30.70;17.32;;;;;;;4.48;100.00;100967.64;1685096;84;21087;-67
2021/12/06 07:21:54;;;;;;;28.20;16.75;;;;;;;4.57;100.00;100968.78;1719401;80;21058;-67
2021/12/06 07:24:21;;;;;;;26.20;16.42;;;;;;;4.70;100.00;100970.75;1725680;82;21071;-67
2021/12/06 07:26:48;;;;;;;31.52;16.85;;;;;;;4.71;100.00;100972.45;1726218;82;21551;-67
2021/12/06 07:29:14;;;;;;;26.97;15.90;;;;;;;4.77;100.00;100978.75;1740216;82;21032;-67
2021/12/06 07:31:41;;;;;;;38.53;20.82;;;;;;;4.78;100.00;100979.14;1738497;81;21492;-67
2021/12/06 07:34:08;;;;;;;32.15;18.20;;;;;;;4.87;100.00;100982.47;1732336;81;21918;-67
2021/12/06 07:36:35;;;;;;;30.60;17.23;;;;;;;4.85;100.00;100977.83;1719383;82;21498;-67
2021/12/06 07:39:03;;;;;;;24.95;14.58;;;;;;;4.78;100.00;100971.50;1717143;81;21048;-67
2021/12/06 07:41:30;;;;;;;33.35;19.92;;;;;;;4.82;100.00;100973.58;1727862;82;21050;-67
2021/12/06 07:43:58;;;;;;;34.33;18.70;;;;;;;4.94;100.00;100970.87;1729524;81;20967;-67
2021/12/06 07:46:25;;;;;;;38.55;20.55;;;;;;;5.05;100.00;100973.70;1739519;81;21479;-67
2021/12/06 07:48:53;;;;;;;33.02;18.82;;;;;;;5.15;100.00;100972.70;1738521;81;21451;-67
2021/12/06 07:51:22;;;;;;;36.65;21.00;;;;;;;5.29;100.00;100974.66;1728103;82;21004;-67
2021/12/06 07:53:50;;;;;;;31.15;18.23;;;;;;;5.49;100.00;100973.50;1732702;81;21037;-67
2021/12/06 07:56:18;;;;;;;31.33;18.02;;;;;;;5.63;100.00;100981.78;1741244;82;21049;-67
2021/12/06 07:58:46;;;;;;;35.95;19.70;;;;;;;5.72;100.00;100975.70;1721526;82;21535;-67
2021/12/06 08:01:14;;;;;;;32.53;18.70;;;;;;;5.86;100.00;100971.61;1736165;82;21508;-67
2021/12/06 08:03:42;;;;;;;34.10;18.12;;;;;;;5.95;100.00;100971.50;1730871;81;20995;-67
2021/12/06 08:06:10;;;;;;;34.55;18.62;;;;;;;5.95;100.00;100968.50;1740733;81;21043;-67
2021/12/06 08:08:40;;;;;;;33.38;18.80;;;;;;;6.08;100.00;100952.95;1728281;82;20996;-67
2021/12/06 08:11:14;;;;;;;34.15;19.00;;;;;;;6.05;100.00;100952.58;1740465;82;21029;-67
2021/12/06 08:13:45;;;;;;;34.83;20.25;;;;;;;6.11;100.00;100953.73;1727892;82;21006;-67
2021/12/06 08:16:16;;;;;;;41.88;21.12;;;;;;;6.04;100.00;100948.31;1737553;81;21067;-67
2021/12/06 08:18:46;;;;;;;35.28;19.57;;;;;;;5.98;100.00;100950.98;1727847;82;21545;-68
2021/12/06 08:21:16;;;;;;;40.70;22.02;;;;;;;6.06;100.00;100949.58;1734201;82;21091;-67
2021/12/06 08:23:43;;;;;;;38.33;20.77;;;;;;;6.06;100.00;100928.69;1727878;82;21097;-67
2021/12/06 08:26:13;;;;;;;36.10;20.08;;;;;;;6.04;100.00;100925.31;1731686;81;21055;-67
2021/12/06 08:28:43;;;;;;;35.05;20.08;;;;;;;6.09;100.00;100930.36;1735502;82;21031;-67
2021/12/06 08:31:13;;;;;;;33.83;19.25;;;;;;;6.05;100.00;100933.41;1738559;82;21492;-67
2021/12/06 08:33:41;;;;;;;35.40;19.80;;;;;;;5.99;100.00;100938.19;1729429;82;21095;-67
2021/12/06 08:36:10;;;;;;;36.03;19.52;;;;;;;5.98;100.00;100939.08;1725650;82;20998;-67
2021/12/06 08:38:40;;;;;;;32.88;18.45;;;;;;;6.01;100.00;100942.84;1705759;82;21091;-66
2021/12/06 08:41:11;;;;;;;51.35;26.17;;;;;;;5.99;100.00;100933.08;1737720;81;21046;-67
2021/12/06 08:43:41;;;;;;;43.80;22.60;;;;;;;6.05;100.00;100934.69;1724180;81;21008;-68
2021/12/06 08:46:16;;;;;;;37.13;20.62;;;;;;;6.16;100.00;100931.50;1742361;81;21052;-67
2021/12/06 08:48:45;;;;;;;38.25;21.17;;;;;;;6.29;100.00;100932.55;1722332;82;21070;-67
2021/12/06 08:51:20;;;;;;;37.42;19.95;;;;;;;6.41;100.00;100924.19;1743318;81;21020;-67
2021/12/06 08:53:49;;;;;;;42.08;22.10;;;;;;;6.45;100.00;100936.48;1739275;81;21101;-67
2021/12/06 08:56:16;;;;;;;39.88;21.40;;;;;;;6.55;100.00;100940.53;1739579;82;21045;-67
2021/12/06 08:58:45;;;;;;;36.45;20.65;;;;;;;6.71;100.00;100937.64;1745299;81;21108;-68
2021/12/06 09:01:14;;;;;;;39.45;21.42;;;;;;;6.80;100.00;100932.34;1737727;81;21071;-67
2021/12/06 09:03:41;;;;;;;45.08;24.27;;;;;;;6.83;100.00;100923.30;1735920;82;21057;-67
2021/12/06 09:06:13;;;;;;;59.60;27.30;;;;;;;6.87;100.00;100923.64;1724425;82;21068;-68
2021/12/06 09:08:41;;;;;;;52.17;26.45;;;;;;;6.83;100.00;100916.90;1741814;81;21587;-67
2021/12/06 09:11:11;;;;;;;60.23;29.92;;;;;;;6.74;100.00;100914.56;1729119;82;21580;-67
2021/12/06 09:13:40;;;;;;;57.03;28.85;;;;;;;6.73;100.00;100920.12;1735553;82;21072;-67
2021/12/06 09:16:10;;;;;;;55.20;27.95;;;;;;;6.73;100.00;100921.41;1724549;82;21091;-67
2021/12/06 09:18:42;;;;;;;57.20;27.17;;;;;;;6.68;100.00;100915.53;1740462;82;21029;-67
2021/12/06 09:21:14;;;;;;;56.98;26.15;;;;;;;6.66;100.00;100916.45;1702406;82;21015;-67
2021/12/06 09:23:42;;;;;;;40.67;21.50;;;;;;;6.65;100.00;100918.17;1728522;82;21044;-68
2021/12/06 09:26:10;;;;;;;52.62;26.35;;;;;;;6.69;100.00;100915.08;1745295;82;21076;-67
2021/12/06 09:28:39;;;;;;;54.13;27.42;;;;;;;6.59;100.00;100911.45;1724111;82;21083;-68
2021/12/06 09:31:08;;;;;;;37.58;20.30;;;;;;;6.58;100.00;100915.32;1743473;82;21052;-68
2021/12/06 09:33:38;;;;;;;38.95;21.25;;;;;;;6.58;100.00;100917.44;1724133;81;21078;-68
2021/12/06 09:36:06;;;;;;;31.37;17.35;;;;;;;6.61;100.00;100922.94;1730010;81;21501;-67
2021/12/06 09:38:40;;;;;;;29.42;15.53;;;;;;;6.62;100.00;100927.17;1730764;81;21455;-67
2021/12/06 09:41:08;;;;;;;30.52;17.30;;;;;;;6.66;100.00;100916.00;1730994;81;21025;-67
2021/12/06 09:43:39;;;;;;;25.48;15.38;;;;;;;6.76;100.00;100919.20;1735712;82;21772;-67
2021/12/06 09:46:11;;;;;;;27.50;16.07;;;;;;;6.78;100.00;100916.18;1727634;81;21078;-67
2021/12/06 09:48:41;;;;;;;28.62;16.42;;;;;;;6.79;100.00;100919.98;1733836;82;21027;-67
2021/12/06 09:51:17;;;;;;;42.20;20.02;;;;;;;6.84;100.00;100909.64;1737616;82;21534;-67
2021/12/06 09:53:46;;;;;;;64.60;27.42;;;;;;;6.89;100.00;100905.25;1736743;82;21542;-67
2021/12/06 09:56:22;;;;;;;49.10;23.10;;;;;;;6.90;100.00;100905.67;1728647;82;21290;-67
2021/12/06 09:58:52;;;;;;;32.28;18.23;;;;;;;6.91;100.00;100906.05;1739146;81;21482;-67
2021/12/06 10:01:24;;;;;;;40.65;20.15;;;;;;;6.92;100.00;100909.48;1742412;82;21044;-68
2021/12/06 10:03:55;;;;;;;39.73;20.45;;;;;;;7.01;100.00;100910.12;1704618;82;21031;-66
2021/12/06 10:06:22;;;;;;;29.72;17.10;;;;;;;7.12;100.00;100909.03;1726220;82;21581;-67
2021/12/06 10:08:52;;;;;;;32.67;18.35;;;;;;;7.25;100.00;100894.20;1745178;81;21056;-67
2021/12/06 10:11:21;;;;;;;30.62;17.95;;;;;;;7.26;100.00;100890.34;1738359;81;21078;-66
2021/12/06 10:13:48;;;;;;;27.67;16.90;;;;;;;7.24;100.00;100886.97;1719334;81;21059;-67
2021/12/06 10:16:16;;;;;;;21.02;13.80;;;;;;;7.10;100.00;100873.66;1734025;81;21053;-66
2021/12/06 10:18:45;;;;;;;24.45;15.23;;;;;;;6.97;100.00;100877.77;1734445;80;21674;-67
2021/12/06 10:21:12;;;;;;;27.48;15.93;;;;;;;6.77;100.00;100875.69;1717706;82;21008;-67
2021/12/06 10:23:41;;;;;;;22.25;14.60;;;;;;;6.76;100.00;100869.31;1732827;82;21617;-67
2021/12/06 10:26:12;;;;;;;21.07;13.32;;;;;;;6.70;100.00;100868.17;1729303;81;21067;-67
2021/12/06 10:28:41;;;;;;;22.58;13.95;;;;;;;6.77;100.00;100876.09;1742243;82;21163;-67
2021/12/06 10:31:11;;;;;;;23.25;13.08;;;;;;;6.88;100.00;100877.16;1737979;82;21031;-67
2021/12/06 10:33:46;;;;;;;24.35;15.63;;;;;;;6.97;100.00;100872.64;1736542;82;21116;-67
2021/12/06 10:36:17;;;;;;;24.75;15.25;;;;;;;7.09;100.00;100871.52;1738966;82;21025;-67
2021/12/06 10:38:52;;;;;;;20.37;13.68;;;;;;;7.28;100.00;100877.05;1744147;82;21552;-66
2021/12/06 10:41:22;;;;;;;23.62;15.60;;;;;;;7.41;100.00;100872.46;1733163;81;21040;-67
2021/12/06 10:43:55;;;;;;;23.23;14.13;;;;;;;7.39;100.00;100872.94;1736410;82;21588;-67
2021/12/06 10:46:23;;;;;;;20.25;13.32;;;;;;;7.27;100.00;100867.68;1732320;81;21207;-66
2021/12/06 10:48:55;;;;;;;20.88;13.43;;;;;;;7.11;100.00;100869.77;1734851;81;21032;-67
2021/12/06 10:51:23;;;;;;;19.95;12.73;;;;;;;7.05;100.00;100866.52;1739763;80;21128;-67
2021/12/06 10:54:04;;;;;;;22.45;12.88;;;;;;;7.00;100.00;100867.47;1738700;81;21077;-67
2021/12/06 10:56:41;;;;;;;20.65;12.95;;;;;;;6.89;100.00;100868.14;1742122;80;21045;-67
2021/12/06 10:59:13;;;;;;;23.92;13.98;;;;;;;6.81;100.00;100862.36;1743309;80;21025;-67
2021/12/06 11:01:40;;;;;;;20.65;13.32;;;;;;;6.69;100.00;100857.11;1733489;82;21039;-66
2021/12/06 11:04:11;;;;;;;23.55;14.20;;;;;;;6.70;100.00;100851.55;1728292;81;21022;-66
2021/12/06 11:06:44;;;;;;;22.48;13.65;;;;;;;6.71;100.00;100850.23;1729565;82;21059;-67
2021/12/06 11:09:24;;;;;;;24.65;15.30;;;;;;;6.85;100.00;100855.46;1744040;82;21036;-67
2021/12/06 11:11:57;;;;;;;22.35;14.23;;;;;;;6.98;100.00;100846.19;1740814;81;21045;-67
2021/12/06 11:14:43;;;;;;;28.00;15.65;;;;;;;7.04;100.00;100848.22;1744529;82;21580;-67
2021/12/06 11:17:16;;;;;;;23.80;14.50;;;;;;;7.12;100.00;100856.55;1745568;82;21599;-66
2021/12/06 11:19:43;;;;;;;21.40;13.10;;;;;;;7.17;100.00;100855.53;1742257;82;21789;-66
2021/12/06 11:22:19;;;;;;;21.35;13.35;;;;;;;7.15;100.00;100848.33;1745632;82;21068;-67
2021/12/06 11:24:51;;;;;;;22.87;13.20;;;;;;;7.23;100.00;100848.98;1743829;82;21622;-66
2021/12/06 11:27:32;;;;;;;21.52;13.65;;;;;;;7.28;100.00;100855.29;1733215;81;20993;-67
2021/12/06 11:30:05;;;;;;;23.22;14.55;;;;;;;7.32;100.00;100849.22;1711079;82;21024;-66